Watertown, New York
Current Conditions -  °F | °C
As of 12:56 PM on Sunday 21 Dec 2014 (Local Time) from KART Reporting Station
Overcast Overcast  
Wind Chill: 33°   Ceiling: 1900
Heat Index: 33°   Visibility: 10mi
Dew Point: 23°   Wind: 3mph
Humidity: 66%   Direction: 330°NNW
Pressure: 30.31"   Gusts: NA
Location:  43.98°N, 75.91°W
Report Text: KART 211756Z AUTO 33003KT 10SM BKN019 OVC034 01/M05 A3031 RMK AO2 SLP270 T00061050 10006 21033 56008
Loading
Personal Weather Stations






























Interactive Weather Map New forecast layout! Learn more

10-Day Weather Forecast

Advertisements
Track Severe Weather on mobile